Time;durP1;ratioP1;P1;durP2;ratioP2;P2;SDS_P1;SDS_P2;PMS_P1;PMS_P2;Temp;Humidity;BMP_temperature;BMP_pressure;BME280_temperature;BME280_humidity;BME280_pressure;Samples;Min_cycle;Max_cycle;Signal;HPM_P1;HPM_P2
2022/07/14 00:01:24;;;;;;;12.23;3.38;;;;;;;16.70;97.76;101997.34;5174223;27;20045;-50
2022/07/14 00:03:53;;;;;;;11.48;2.58;;;;;;;16.77;96.88;102002.19;5155876;27;20038;-48
2022/07/14 00:06:22;;;;;;;11.05;2.53;;;;;;;16.81;96.56;101987.72;5176490;27;20050;-59
2022/07/14 00:08:50;;;;;;;17.73;4.30;;;;;;;16.71;96.70;101998.19;5176988;27;20384;-50
2022/07/14 00:11:18;;;;;;;13.13;2.65;;;;;;;16.72;96.64;101984.78;5176862;27;20523;-58
2022/07/14 00:13:46;;;;;;;15.93;3.03;;;;;;;16.60;97.59;101975.06;5176858;27;20445;-58
2022/07/14 00:16:14;;;;;;;13.23;2.88;;;;;;;16.55;97.50;101971.88;5177099;27;20038;-58
2022/07/14 00:18:44;;;;;;;16.88;2.85;;;;;;;16.61;97.48;101965.31;5176885;27;20454;-58
2022/07/14 00:21:13;;;;;;;15.13;2.88;;;;;;;16.55;97.73;101954.16;5174297;27;20130;-54
2022/07/14 00:23:43;;;;;;;10.75;2.67;;;;;;;16.50;98.00;101963.44;5175566;27;20086;-58
2022/07/14 00:26:11;;;;;;;13.70;2.65;;;;;;;16.39;98.85;101970.34;5176840;27;20027;-52
2022/07/14 00:28:40;;;;;;;10.82;2.80;;;;;;;16.36;98.86;101967.06;5176147;27;20125;-57
2022/07/14 00:31:09;;;;;;;11.70;2.97;;;;;;;16.21;99.80;101963.69;5176631;27;20472;-57
2022/07/14 00:33:39;;;;;;;11.30;2.97;;;;;;;16.30;99.52;101970.16;5176755;27;20042;-58
2022/07/14 00:36:08;;;;;;;12.25;2.85;;;;;;;16.28;99.54;101967.63;5154446;27;20062;-51
2022/07/14 00:38:36;;;;;;;14.00;2.70;;;;;;;16.23;99.68;101972.41;5171281;27;20038;-58
2022/07/14 00:41:06;;;;;;;13.85;3.00;;;;;;;16.22;100.00;101970.69;5175446;27;20509;-51
2022/07/14 00:43:34;;;;;;;12.45;2.30;;;;;;;16.26;99.75;101969.53;5175496;27;20038;-58
2022/07/14 00:46:03;;;;;;;11.45;3.05;;;;;;;16.21;100.00;101956.59;5176538;27;20434;-58
2022/07/14 00:48:31;;;;;;;10.25;2.55;;;;;;;16.29;99.43;101963.16;5176008;27;20054;-51
2022/07/14 00:50:59;;;;;;;10.07;2.80;;;;;;;16.27;99.65;101976.53;5175824;27;20381;-51
2022/07/14 00:53:27;;;;;;;14.25;2.75;;;;;;;16.26;99.83;101982.78;5175878;27;20125;-57
2022/07/14 00:55:55;;;;;;;12.48;3.17;;;;;;;16.27;99.74;101984.50;5157191;27;20038;-58
2022/07/14 00:58:24;;;;;;;12.75;2.78;;;;;;;16.30;100.00;101992.25;5175552;27;20125;-49
2022/07/14 01:00:52;;;;;;;17.10;2.95;;;;;;;16.19;100.00;101989.50;5172535;27;20046;-52
2022/07/14 01:03:21;;;;;;;14.95;3.00;;;;;;;16.21;100.00;101988.44;5173106;27;20050;-51
2022/07/14 01:05:49;;;;;;;13.20;3.10;;;;;;;16.21;100.00;101998.19;5172410;27;20449;-58
2022/07/14 01:08:17;;;;;;;12.35;2.70;;;;;;;16.23;99.55;102004.25;5175864;27;20038;-53
2022/07/14 01:10:45;;;;;;;13.25;2.95;;;;;;;16.22;99.97;102003.41;5175699;27;20096;-58
2022/07/14 01:13:13;;;;;;;13.20;2.90;;;;;;;16.25;99.37;102002.31;5157181;27;20062;-53
2022/07/14 01:15:42;;;;;;;14.82;3.30;;;;;;;16.17;99.57;102009.97;5172302;27;20034;-58
2022/07/14 01:18:10;;;;;;;11.73;2.50;;;;;;;16.09;99.36;102013.19;5176080;27;20050;-58
2022/07/14 01:20:38;;;;;;;14.07;2.97;;;;;;;16.08;99.44;102003.53;5175286;27;20070;-53
2022/07/14 01:23:08;;;;;;;12.80;3.13;;;;;;;16.04;99.80;102004.72;5176042;27;20050;-58
2022/07/14 01:25:36;;;;;;;11.60;2.75;;;;;;;16.10;99.66;101998.13;5175870;27;20090;-58
2022/07/14 01:28:04;;;;;;;12.15;3.08;;;;;;;15.98;99.90;101992.72;5176000;27;20095;-59
2022/07/14 01:30:33;;;;;;;12.65;3.00;;;;;;;15.95;100.00;101978.81;5176001;27;20038;-58
2022/07/14 01:33:01;;;;;;;12.20;2.97;;;;;;;16.04;99.73;101976.34;5175423;27;20034;-57
2022/07/14 01:35:29;;;;;;;12.70;2.33;;;;;;;15.86;100.00;101977.66;5172463;27;20049;-51
2022/07/14 01:37:57;;;;;;;12.57;2.60;;;;;;;15.94;100.00;101983.28;5170363;27;20072;-58
2022/07/14 01:40:26;;;;;;;13.63;2.70;;;;;;;15.93;100.00;101989.53;5173132;27;20062;-50
2022/07/14 01:42:54;;;;;;;15.75;2.30;;;;;;;15.97;100.00;101988.38;5172131;27;20397;-54
2022/07/14 01:45:22;;;;;;;15.40;2.88;;;;;;;15.92;100.00;101994.94;5173617;27;20062;-48
2022/07/14 01:47:50;;;;;;;11.18;2.30;;;;;;;15.92;99.75;101990.47;5174487;27;20038;-51
2022/07/14 01:50:18;;;;;;;13.18;2.58;;;;;;;15.94;99.82;101993.91;5173190;27;20058;-51
2022/07/14 01:52:46;;;;;;;12.95;2.40;;;;;;;15.91;99.94;101986.16;5171138;27;20058;-50
2022/07/14 01:55:15;;;;;;;11.57;2.50;;;;;;;15.86;100.00;101982.97;5173985;27;20418;-51
2022/07/14 01:57:44;;;;;;;13.98;2.42;;;;;;;15.93;99.63;101983.41;5173998;27;20038;-53
2022/07/14 02:00:13;;;;;;;13.90;2.83;;;;;;;15.85;100.00;101986.56;5165849;27;20094;-59
2022/07/14 02:02:41;;;;;;;9.82;2.45;;;;;;;15.85;99.90;101994.53;5173038;27;20099;-58
2022/07/14 02:05:10;;;;;;;12.90;2.75;;;;;;;15.80;100.00;101996.66;5172232;27;20091;-52
2022/07/14 02:07:38;;;;;;;11.63;2.60;;;;;;;15.79;99.56;101992.25;5172675;27;20038;-59
2022/07/14 02:12:58;;;;;;;13.13;2.35;;;;;;;15.71;99.83;101992.81;5173270;27;20515;-54
2022/07/14 02:15:26;;;;;;;13.85;2.58;;;;;;;15.65;100.00;101999.38;5171515;27;20046;-58
2022/07/14 02:17:54;;;;;;;14.77;3.05;;;;;;;15.80;99.83;101999.28;5173600;27;20094;-58
2022/07/14 02:20:23;;;;;;;13.40;3.00;;;;;;;15.75;99.90;101998.72;5174596;27;20500;-58
2022/07/14 02:22:51;;;;;;;10.40;2.40;;;;;;;15.58;100.00;101997.25;5169312;27;20473;-50
2022/07/14 02:25:19;;;;;;;12.45;2.85;;;;;;;15.52;100.00;101995.88;5174406;27;20098;-51
2022/07/14 02:27:47;;;;;;;9.82;3.00;;;;;;;15.51;100.00;101996.81;5174901;27;20125;-58
2022/07/14 02:30:16;;;;;;;10.90;2.42;;;;;;;15.50;100.00;102001.28;5174775;27;20045;-58
2022/07/14 02:32:44;;;;;;;14.07;2.40;;;;;;;15.47;99.74;101992.66;5175050;27;20421;-58
2022/07/14 02:35:12;;;;;;;11.43;3.25;;;;;;;15.43;100.00;101999.13;5174526;27;20045;-59
2022/07/14 02:37:41;;;;;;;11.70;2.63;;;;;;;15.39;100.00;101998.47;5173983;27;20446;-53
2022/07/14 02:40:11;;;;;;;12.85;2.63;;;;;;;15.27;100.00;101992.22;5174362;27;20050;-58
2022/07/14 02:42:39;;;;;;;10.68;2.42;;;;;;;15.23;100.00;101990.72;5171957;27;20106;-59
2022/07/14 02:45:08;;;;;;;15.13;3.03;;;;;;;15.14;100.00;101986.03;5175331;27;20038;-58
2022/07/14 02:47:38;;;;;;;13.40;2.67;;;;;;;15.09;100.00;101986.31;5175187;27;20060;-58
2022/07/14 02:50:07;;;;;;;10.73;2.55;;;;;;;15.13;100.00;101981.69;5174973;27;20035;-58
2022/07/14 02:52:35;;;;;;;10.70;2.38;;;;;;;15.10;100.00;101987.19;5175030;27;20590;-58
2022/07/14 02:55:04;;;;;;;12.68;3.03;;;;;;;15.15;100.00;101988.56;5175237;27;20046;-58
2022/07/14 02:57:33;;;;;;;10.23;2.47;;;;;;;14.99;100.00;101988.75;5174556;27;20034;-53
2022/07/14 03:00:01;;;;;;;13.10;2.35;;;;;;;15.01;100.00;101981.56;5174733;27;20046;-58
2022/07/14 03:02:29;;;;;;;15.25;3.03;;;;;;;14.95;100.00;101983.75;5177383;27;20098;-54
2022/07/14 03:04:58;;;;;;;10.70;2.53;;;;;;;15.06;100.00;101977.75;5179048;27;20042;-58
2022/07/14 03:07:27;;;;;;;9.07;2.42;;;;;;;14.98;100.00;101972.94;5160351;27;20550;-59
2022/07/14 03:09:58;;;;;;;15.40;2.58;;;;;;;15.01;100.00;101973.59;5160268;27;20106;-58
2022/07/14 03:12:27;;;;;;;11.02;2.65;;;;;;;14.99;100.00;101970.19;5178501;27;20054;-59
2022/07/14 03:14:55;;;;;;;14.00;3.40;;;;;;;14.87;100.00;101965.72;5178552;27;20042;-51
2022/07/14 03:17:23;;;;;;;11.82;2.65;;;;;;;14.82;100.00;101967.81;5178368;27;20508;-52
2022/07/14 03:19:51;;;;;;;10.15;2.58;;;;;;;14.81;100.00;101966.13;5178831;27;20373;-58
2022/07/14 03:22:20;;;;;;;11.75;2.67;;;;;;;14.74;100.00;101972.75;5178718;27;20062;-58
2022/07/14 03:24:48;;;;;;;17.73;2.72;;;;;;;14.74;100.00;101978.91;5178634;27;20034;-58
2022/07/14 03:27:17;;;;;;;14.77;3.33;;;;;;;14.64;100.00;101970.72;5179018;27;20038;-61
2022/07/14 03:29:45;;;;;;;10.65;2.60;;;;;;;14.65;100.00;101968.91;5160017;27;20042;-58
2022/07/14 03:32:13;;;;;;;9.93;2.67;;;;;;;14.66;100.00;101965.31;5178800;27;20493;-58
2022/07/14 03:34:41;;;;;;;16.00;3.20;;;;;;;14.66;100.00;101968.81;5178532;27;20058;-59
2022/07/14 03:37:09;;;;;;;12.07;2.85;;;;;;;14.74;100.00;101967.44;5178233;27;20050;-52
2022/07/14 03:39:39;;;;;;;11.98;2.50;;;;;;;14.62;100.00;101961.16;5177743;27;20034;-59
2022/07/14 03:42:07;;;;;;;11.30;2.72;;;;;;;14.51;100.00;101975.06;5178132;27;20057;-52
2022/07/14 03:44:35;;;;;;;15.45;2.88;;;;;;;14.45;100.00;101965.72;5178251;27;20087;-59
2022/07/14 03:47:04;;;;;;;9.43;2.50;;;;;;;14.43;100.00;101970.25;5178193;27;20536;-53
2022/07/14 03:49:32;;;;;;;13.88;2.58;;;;;;;14.46;100.00;101972.69;5177576;27;20062;-50
2022/07/14 03:52:00;;;;;;;12.82;2.70;;;;;;;14.41;100.00;101966.00;5177593;27;20102;-52
2022/07/14 03:54:28;;;;;;;9.63;2.38;;;;;;;14.34;100.00;101963.75;5177573;27;20099;-50
2022/07/14 03:56:57;;;;;;;13.02;3.05;;;;;;;14.33;100.00;101966.50;5177893;27;20098;-54
2022/07/14 03:59:25;;;;;;;11.00;2.55;;;;;;;14.30;100.00;101962.25;5178032;27;20069;-59
2022/07/14 04:01:53;;;;;;;9.45;2.38;;;;;;;14.28;100.00;101961.50;5177703;27;20046;-58
2022/07/14 04:04:22;;;;;;;14.88;3.40;;;;;;;14.33;100.00;101955.94;5177793;27;20049;-58
2022/07/14 04:06:50;;;;;;;9.32;3.00;;;;;;;14.32;100.00;101951.56;5177629;27;20050;-58
2022/07/14 04:09:18;;;;;;;8.30;2.42;;;;;;;14.40;100.00;101946.63;5177875;27;20386;-58
2022/07/14 04:11:46;;;;;;;13.15;2.70;;;;;;;14.31;100.00;101952.50;5177672;27;20418;-58
2022/07/14 04:14:15;;;;;;;10.38;2.72;;;;;;;14.26;100.00;101955.47;5176844;27;20042;-59
2022/07/14 04:16:43;;;;;;;13.43;3.08;;;;;;;14.24;100.00;101952.03;5177823;27;20067;-58
2022/07/14 04:19:12;;;;;;;11.68;2.88;;;;;;;14.29;100.00;101949.97;5177770;27;20054;-52
2022/07/14 04:21:40;;;;;;;11.98;2.58;;;;;;;14.35;100.00;101952.22;5176838;27;20065;-54
2022/07/14 04:24:08;;;;;;;9.65;3.13;;;;;;;14.29;100.00;101938.50;5177018;27;20054;-59
2022/07/14 04:26:39;;;;;;;12.35;2.80;;;;;;;14.29;100.00;101955.25;5177596;27;20042;-60
2022/07/14 04:29:08;;;;;;;9.88;2.65;;;;;;;14.35;100.00;101952.22;5177440;27;20061;-58
2022/07/14 04:31:37;;;;;;;15.02;2.95;;;;;;;14.34;100.00;101950.53;5177572;27;20042;-58
2022/07/14 04:34:05;;;;;;;12.13;2.58;;;;;;;14.38;100.00;101964.41;5177331;27;20123;-54
2022/07/14 04:36:33;;;;;;;10.50;2.97;;;;;;;14.36;100.00;101961.84;5176459;27;20068;-54
2022/07/14 04:39:02;;;;;;;11.18;2.38;;;;;;;14.30;100.00;101971.97;5176783;27;20034;-58
2022/07/14 04:41:37;;;;;;;13.30;3.13;;;;;;;14.35;100.00;101969.91;5176752;27;20050;-58
2022/07/14 04:44:05;;;;;;;14.02;3.05;;;;;;;14.36;100.00;101968.94;5176600;27;20052;-59
2022/07/14 04:46:33;;;;;;;13.80;2.90;;;;;;;14.34;100.00;101969.06;5176346;27;20105;-48
2022/07/14 04:52:04;;;;;;;15.57;2.88;;;;;;;14.41;100.00;101973.94;5177115;27;20071;-59
2022/07/14 04:54:33;;;;;;;14.38;3.08;;;;;;;14.41;100.00;101969.53;5176503;27;20063;-56
2022/07/14 04:57:03;;;;;;;19.98;3.35;;;;;;;14.46;100.00;101967.41;5176265;27;20038;-58
2022/07/14 04:59:32;;;;;;;10.63;2.97;;;;;;;14.46;100.00;101970.06;5175927;27;20044;-59
2022/07/14 05:02:00;;;;;;;23.73;2.97;;;;;;;14.51;100.00;101970.59;5167772;27;20046;-50
2022/07/14 05:04:30;;;;;;;18.52;3.38;;;;;;;14.59;100.00;101970.13;5175551;27;20069;-58
2022/07/14 05:06:58;;;;;;;15.50;3.25;;;;;;;14.61;100.00;101964.72;5175572;27;20120;-57
2022/07/14 05:09:30;;;;;;;19.13;2.80;;;;;;;14.68;100.00;101966.06;5175790;27;20095;-58
2022/07/14 05:11:58;;;;;;;22.77;3.22;;;;;;;14.66;100.00;101965.31;5176009;27;20094;-57
2022/07/14 05:14:26;;;;;;;17.92;3.08;;;;;;;14.78;100.00;101964.53;5175044;27;20110;-52
2022/07/14 05:16:55;;;;;;;14.27;3.17;;;;;;;14.88;100.00;101960.31;5175108;27;20515;-50
2022/07/14 05:19:46;;;;;;;14.48;3.05;;;;;;;14.92;100.00;101965.41;5174940;27;20034;-52
2022/07/14 05:22:15;;;;;;;13.20;2.78;;;;;;;14.96;100.00;101966.91;5175287;27;20047;-53
2022/07/14 05:24:43;;;;;;;15.43;2.58;;;;;;;15.05;100.00;101976.88;5174446;27;20398;-58
2022/07/14 05:27:11;;;;;;;13.15;3.08;;;;;;;15.08;100.00;101971.41;5174830;27;20074;-54
2022/07/14 05:29:39;;;;;;;11.45;2.42;;;;;;;15.14;100.00;101972.78;5172601;27;20172;-58
2022/07/14 05:32:08;;;;;;;17.40;3.38;;;;;;;15.24;100.00;101981.81;5175040;27;20099;-58
2022/07/14 05:34:42;;;;;;;15.30;3.13;;;;;;;15.32;100.00;101987.44;5174370;27;20069;-58
2022/07/14 05:37:12;;;;;;;11.82;2.53;;;;;;;15.38;100.00;101984.38;5174782;27;20173;-54
2022/07/14 05:39:40;;;;;;;9.93;2.30;;;;;;;15.46;100.00;101983.88;5174503;27;20046;-51
2022/07/14 05:42:10;;;;;;;15.32;3.08;;;;;;;15.53;100.00;101993.09;5173317;27;20066;-59
2022/07/14 05:44:39;;;;;;;10.30;2.88;;;;;;;15.64;99.75;101983.59;5156147;27;20524;-53
2022/07/14 05:47:07;;;;;;;9.45;2.20;;;;;;;15.70;97.85;101991.94;5174447;27;20500;-59
2022/07/14 05:49:35;;;;;;;11.07;2.53;;;;;;;15.80;97.91;101992.22;5173858;27;20049;-53
2022/07/14 05:52:05;;;;;;;13.27;2.58;;;;;;;15.92;97.07;101994.94;5174417;27;20426;-54
2022/07/14 05:54:35;;;;;;;10.68;1.80;;;;;;;15.96;95.46;101991.97;5171650;27;20492;-52
2022/07/14 05:57:03;;;;;;;10.20;2.20;;;;;;;16.05;94.79;101996.63;5174733;27;20034;-59
2022/07/14 05:59:31;;;;;;;11.57;2.30;;;;;;;16.13;92.82;101992.59;5174568;27;20154;-54
2022/07/14 06:02:13;;;;;;;13.13;2.25;;;;;;;16.24;93.31;101990.03;5171276;27;20057;-58
2022/07/14 06:04:41;;;;;;;11.02;2.28;;;;;;;16.34;93.53;101990.22;5171779;27;20046;-58
2022/07/14 06:07:10;;;;;;;12.35;2.13;;;;;;;16.38;91.28;101995.19;5174208;27;20118;-58
2022/07/14 06:09:40;;;;;;;10.75;1.88;;;;;;;16.43;91.83;101983.38;5174056;27;20121;-53
2022/07/14 06:12:10;;;;;;;10.85;2.03;;;;;;;16.50;91.10;101984.66;5171694;27;20103;-52
2022/07/14 06:14:38;;;;;;;9.45;2.00;;;;;;;16.59;90.79;101977.81;5173856;27;20039;-58
2022/07/14 06:17:06;;;;;;;7.63;1.80;;;;;;;16.66;90.22;101977.28;5152293;27;20038;-52
2022/07/14 06:19:34;;;;;;;11.80;2.38;;;;;;;16.78;88.81;101982.63;5154856;27;20050;-57
2022/07/14 06:22:04;;;;;;;8.13;2.15;;;;;;;16.93;89.50;101988.66;5174457;27;20034;-52
2022/07/14 06:24:32;;;;;;;10.77;2.28;;;;;;;17.09;90.67;101978.59;5173593;27;20058;-50
2022/07/14 06:27:01;;;;;;;12.57;2.10;;;;;;;17.16;88.62;101987.78;5174967;27;20042;-58
2022/07/14 06:29:29;;;;;;;12.75;2.05;;;;;;;17.25;88.65;101991.56;5174939;27;20050;-53
2022/07/14 06:31:57;;;;;;;13.10;1.85;;;;;;;17.31;85.98;101995.56;5174899;27;20083;-58
2022/07/14 06:34:26;;;;;;;10.57;2.22;;;;;;;17.44;85.25;101993.69;5174717;27;20496;-53
2022/07/14 06:36:53;;;;;;;12.93;2.20;;;;;;;17.55;83.77;101987.53;5174382;27;20473;-52
2022/07/14 06:39:22;;;;;;;13.00;2.22;;;;;;;17.63;84.95;101982.47;5174948;27;20064;-58
2022/07/14 06:41:49;;;;;;;12.68;2.15;;;;;;;17.77;84.64;101986.72;5175055;27;20054;-58
2022/07/14 06:44:19;;;;;;;12.32;2.55;;;;;;;17.82;82.58;101981.03;5174851;27;20168;-58
2022/07/14 06:46:54;;;;;;;12.27;2.10;;;;;;;17.99;82.81;101979.75;5175085;27;20408;-57
2022/07/14 06:49:22;;;;;;;13.15;2.50;;;;;;;18.16;81.90;101984.59;5175076;27;20034;-57
2022/07/14 06:51:50;;;;;;;11.27;2.13;;;;;;;18.30;79.46;101978.16;5174744;27;20043;-57
2022/07/14 06:54:23;;;;;;;;;;;;;;;18.35;80.54;101968.00;5175216;27;20045;-57
2022/07/14 06:56:51;;;;;;;12.85;2.00;;;;;;;18.45;79.31;101968.09;5174726;27;19957;-57
2022/07/14 06:59:21;;;;;;;9.65;1.83;;;;;;;18.59;78.98;101972.28;5174641;27;20132;-57
2022/07/14 07:01:49;;;;;;;12.93;2.55;;;;;;;18.71;78.45;101965.94;5174699;27;20127;-58
2022/07/14 07:04:17;;;;;;;12.15;2.13;;;;;;;18.82;77.24;101956.25;5174608;27;20042;-58
2022/07/14 07:06:51;;;;;;;13.52;2.25;;;;;;;18.85;76.83;101948.81;5155971;27;20046;-50
2022/07/14 07:09:21;;;;;;;12.55;1.95;;;;;;;18.95;76.64;101946.28;5174464;27;20094;-51
2022/07/14 07:11:50;;;;;;;9.18;1.80;;;;;;;18.84;76.18;101948.94;5174383;27;20090;-59
2022/07/14 07:14:19;;;;;;;7.57;1.80;;;;;;;19.01;76.63;101947.59;5174760;27;20057;-59
2022/07/14 07:16:50;;;;;;;10.80;2.05;;;;;;;19.10;75.24;101952.13;5174541;27;20057;-58
2022/07/14 07:19:18;;;;;;;8.73;1.80;;;;;;;19.30;74.29;101955.78;5174331;27;20050;-58
2022/07/14 07:21:46;;;;;;;8.75;1.50;;;;;;;19.42;74.15;101953.91;5174420;27;20075;-58
2022/07/14 07:24:14;;;;;;;11.68;2.20;;;;;;;19.58;73.69;101956.09;5174458;27;20050;-59
2022/07/14 07:26:43;;;;;;;10.40;1.85;;;;;;;19.79;73.04;101958.72;5174369;27;20575;-58
2022/07/14 07:29:11;;;;;;;9.23;1.88;;;;;;;19.96;72.84;101962.63;5174327;27;20075;-58
2022/07/14 07:31:39;;;;;;;8.85;2.08;;;;;;;20.01;71.80;101955.03;5174594;27;20703;-58
2022/07/14 07:34:09;;;;;;;9.27;1.58;;;;;;;20.09;70.53;101947.19;5174778;27;20052;-58
2022/07/14 07:36:37;;;;;;;9.48;2.10;;;;;;;20.14;69.44;101948.63;5174167;27;20058;-59
2022/07/14 07:39:15;;;;;;;8.00;1.75;;;;;;;20.27;68.81;101943.88;5174451;27;20121;-58
2022/07/14 07:41:43;;;;;;;8.68;1.52;;;;;;;20.57;67.01;101942.09;5174093;27;20027;-58
2022/07/14 07:44:11;;;;;;;7.80;1.73;;;;;;;20.73;64.45;101949.59;5174324;27;20060;-58
2022/07/14 07:46:39;;;;;;;8.38;1.73;;;;;;;20.84;65.80;101952.13;5174178;27;20121;-58
2022/07/14 07:49:09;;;;;;;7.43;1.80;;;;;;;21.17;63.37;101957.19;5157455;27;20117;-59
2022/07/14 07:51:38;;;;;;;8.32;1.67;;;;;;;21.26;61.14;101946.47;5177781;27;20071;-51
2022/07/14 07:54:06;;;;;;;8.18;1.98;;;;;;;21.49;61.40;101945.28;5178302;27;20050;-58
2022/07/14 07:56:34;;;;;;;8.30;1.85;;;;;;;21.69;60.56;101946.97;5177844;27;20090;-58
2022/07/14 07:59:03;;;;;;;9.48;1.70;;;;;;;21.64;61.52;101943.88;5177920;27;20509;-50
2022/07/14 08:01:31;;;;;;;10.05;1.50;;;;;;;21.77;59.27;101943.53;5177694;27;20554;-53
2022/07/14 08:03:59;;;;;;;8.43;1.60;;;;;;;21.98;62.23;101940.63;5177809;27;20044;-52
2022/07/14 08:06:29;;;;;;;7.68;1.70;;;;;;;22.22;59.02;101940.09;5177665;27;20492;-52
2022/07/14 08:09:10;;;;;;;8.65;1.55;;;;;;;22.27;57.87;101939.63;5177286;27;20054;-49
2022/07/14 08:11:39;;;;;;;6.03;1.38;;;;;;;22.40;58.03;101933.91;5177648;27;20509;-58
2022/07/14 08:14:47;;;;;;;7.28;1.50;;;;;;;22.44;55.84;101930.78;5158709;27;20046;-57
2022/07/14 08:16:57;;;;;;;7.95;1.38;;;;;;;22.61;55.92;101928.28;5177410;27;20066;-52
2022/07/14 08:19:26;;;;;;;6.82;1.20;;;;;;;22.82;56.85;101916.38;5177553;27;20042;-51
2022/07/14 08:21:56;;;;;;;6.75;1.33;;;;;;;22.94;55.27;101909.78;5177442;27;20048;-53
2022/07/14 08:24:24;;;;;;;4.90;1.15;;;;;;;22.93;54.78;101910.75;5177331;27;20460;-49
2022/07/14 08:26:52;;;;;;;5.90;1.48;;;;;;;23.15;55.14;101914.84;5177277;27;20052;-58
2022/07/14 08:29:20;;;;;;;8.40;1.65;;;;;;;23.38;53.36;101901.72;5177232;27;20058;-58
2022/07/14 08:31:48;;;;;;;7.10;1.45;;;;;;;23.36;52.29;101903.72;5177285;27;20034;-57
2022/07/14 08:34:17;;;;;;;6.05;1.23;;;;;;;23.53;52.89;101901.97;5177100;27;20519;-56
2022/07/14 08:36:45;;;;;;;8.32;1.50;;;;;;;23.44;51.85;101900.25;5176748;27;20110;-50
2022/07/14 08:39:15;;;;;;;6.38;1.65;;;;;;;23.50;53.24;101899.59;5177019;27;20511;-52
2022/07/14 08:41:43;;;;;;;7.63;1.50;;;;;;;23.65;52.02;101902.50;5176996;27;20069;-51
2022/07/14 08:44:13;;;;;;;8.88;1.48;;;;;;;23.87;50.83;101890.34;5176795;27;20049;-51
2022/07/14 08:46:41;;;;;;;9.02;1.17;;;;;;;24.13;50.53;101902.88;5176717;27;20045;-57
2022/07/14 08:49:12;;;;;;;6.20;1.45;;;;;;;24.20;49.90;101892.31;5176928;27;20054;-57
2022/07/14 08:51:49;;;;;;;7.43;1.80;;;;;;;24.27;48.21;101887.97;5176533;27;20049;-58
2022/07/14 08:54:19;;;;;;;6.95;1.35;;;;;;;24.41;47.81;101887.31;5176611;27;20509;-58
2022/07/14 08:56:47;;;;;;;8.82;1.33;;;;;;;24.47;49.90;101885.81;5176601;27;20049;-57
2022/07/14 08:59:15;;;;;;;6.22;1.30;;;;;;;24.75;49.67;101875.59;5176349;27;20125;-58
2022/07/14 09:01:49;;;;;;;5.68;1.63;;;;;;;24.68;48.30;101877.28;5176605;27;20042;-58
2022/07/14 09:04:18;;;;;;;7.15;1.48;;;;;;;25.01;46.93;101876.41;5176497;27;20070;-59
2022/07/14 09:06:52;;;;;;;7.75;1.73;;;;;;;24.81;46.81;101868.69;5176593;27;20480;-58
2022/07/14 09:09:24;;;;;;;8.15;1.75;;;;;;;24.77;47.38;101865.53;5176372;27;20133;-58
2022/07/14 09:11:54;;;;;;;9.02;2.10;;;;;;;25.18;45.73;101863.75;5176482;27;20434;-57
2022/07/14 09:14:26;;;;;;;;;;;;;;;25.55;48.27;101857.78;5176932;27;20373;-57
2022/07/14 09:17:14;;;;;;;7.45;1.70;;;;;;;25.87;46.03;101855.94;5176127;27;20013;-58
2022/07/14 09:20:08;;;;;;;6.90;1.30;;;;;;;25.44;42.66;101855.47;5176254;27;20046;-58
2022/07/14 09:22:38;;;;;;;9.52;1.40;;;;;;;25.39;45.04;101852.47;5176341;27;20503;-58
2022/07/14 09:25:09;;;;;;;6.72;1.52;;;;;;;25.48;44.40;101860.34;5176110;27;20081;-58
2022/07/14 09:27:38;;;;;;;5.88;1.30;;;;;;;25.62;46.01;101855.25;5175978;27;20046;-57
2022/07/14 09:30:11;;;;;;;6.93;1.60;;;;;;;25.62;44.04;101858.75;5175831;27;20062;-58
2022/07/14 09:32:44;;;;;;;5.72;1.27;;;;;;;26.10;44.20;101857.88;5175932;27;20479;-58
2022/07/14 09:35:14;;;;;;;9.27;1.83;;;;;;;26.46;42.12;101857.25;5175991;27;20038;-58
2022/07/14 09:37:43;;;;;;;6.47;1.25;;;;;;;26.41;41.37;101854.25;5175729;27;20054;-58
2022/07/14 09:40:16;;;;;;;8.82;1.92;;;;;;;26.18;41.89;101859.66;5176291;27;20094;-58
2022/07/14 09:42:53;;;;;;;8.23;1.58;;;;;;;26.46;42.72;101859.94;5175751;27;20086;-58
2022/07/14 09:45:23;;;;;;;8.18;1.33;;;;;;;26.66;42.23;101857.59;5175112;27;20052;-52
2022/07/14 09:47:58;;;;;;;6.30;1.30;;;;;;;26.76;41.71;101852.78;5175066;27;20042;-53
2022/07/14 09:50:41;;;;;;;7.45;1.55;;;;;;;26.82;41.05;101853.94;5174838;27;20128;-54
2022/07/14 09:53:15;;;;;;;8.95;1.50;;;;;;;26.66;41.44;101863.00;5174925;27;20035;-57
2022/07/14 09:55:51;;;;;;;7.30;1.55;;;;;;;26.88;39.66;101860.47;5174846;27;20054;-57
2022/07/14 09:58:21;;;;;;;8.13;1.80;;;;;;;26.65;41.74;101858.59;5174859;27;20069;-57
2022/07/14 10:01:03;;;;;;;;;;;;;;;26.76;39.81;101860.88;5175565;27;20042;-57
2022/07/14 10:03:34;;;;;;;6.63;1.63;;;;;;;26.72;41.45;101870.38;5174814;27;19929;-50
2022/07/14 10:06:04;;;;;;;6.47;1.52;;;;;;;26.84;41.03;101862.69;5174513;27;20057;-50
2022/07/14 10:08:55;;;;;;;6.13;1.25;;;;;;;26.82;40.60;101862.03;5174951;27;20077;-57
2022/07/14 10:11:26;;;;;;;7.43;1.10;;;;;;;27.05;39.70;101867.38;5174206;27;20508;-57
2022/07/14 10:13:54;;;;;;;5.25;1.20;;;;;;;26.75;40.02;101858.38;5174763;27;20030;-57
2022/07/14 10:16:23;;;;;;;5.13;1.13;;;;;;;26.70;39.93;101867.03;5174904;27;20046;-56
2022/07/14 10:18:51;;;;;;;4.57;1.20;;;;;;;26.51;39.33;101867.50;5174565;27;20037;-51
2022/07/14 10:21:19;;;;;;;7.10;1.20;;;;;;;26.61;38.91;101873.47;5174491;27;20042;-52
2022/07/14 10:23:48;;;;;;;3.25;1.05;;;;;;;26.82;39.94;101864.72;5174702;27;20094;-53
2022/07/14 10:26:18;;;;;;;6.75;1.40;;;;;;;26.86;40.43;101860.66;5174523;27;20046;-52
2022/07/14 10:28:47;;;;;;;7.18;1.25;;;;;;;26.96;40.91;101860.38;5174404;27;20038;-50
2022/07/14 10:31:22;;;;;;;6.25;1.25;;;;;;;27.29;39.66;101851.91;5174338;27;20137;-57
2022/07/14 10:34:00;;;;;;;7.38;1.42;;;;;;;26.88;38.20;101852.38;5155642;27;20050;-57
2022/07/14 10:36:37;;;;;;;12.75;2.33;;;;;;;27.39;39.07;101857.91;5174079;27;20065;-57
2022/07/14 10:39:14;;;;;;;4.50;1.30;;;;;;;27.16;38.13;101857.97;5174690;27;20531;-57
2022/07/14 10:41:55;;;;;;;5.00;1.00;;;;;;;27.43;37.68;101852.97;5174580;27;20046;-52
2022/07/14 10:44:28;;;;;;;6.22;1.23;;;;;;;27.44;37.81;101855.47;5174460;27;20038;-51
2022/07/14 10:47:07;;;;;;;5.40;1.42;;;;;;;27.66;37.71;101847.44;5174783;27;20050;-56
2022/07/14 10:50:07;;;;;;;4.43;1.00;;;;;;;28.02;37.51;101849.34;5174779;27;20473;-51
2022/07/14 10:52:38;;;;;;;6.97;1.48;;;;;;;28.37;38.08;101857.56;5174519;27;20069;-50
2022/07/14 10:55:14;;;;;;;5.40;1.25;;;;;;;28.63;34.95;101850.69;5174745;27;20050;-51
2022/07/14 10:58:15;;;;;;;5.43;1.40;;;;;;;28.45;34.80;101843.88;5174632;27;20047;-54
2022/07/14 11:01:02;;;;;;;4.68;1.10;;;;;;;28.85;33.55;101838.00;5174646;27;20050;-57
2022/07/14 11:03:48;;;;;;;4.40;1.10;;;;;;;29.47;31.69;101841.69;5174480;27;20082;-57
2022/07/14 11:06:21;;;;;;;5.95;1.23;;;;;;;29.79;32.11;101844.72;5155942;27;20099;-57
2022/07/14 11:09:38;;;;;;;4.93;1.23;;;;;;;29.45;30.29;101834.78;5174749;27;20058;-50
2022/07/14 11:12:12;;;;;;;5.45;1.13;;;;;;;28.86;30.40;101833.41;5174705;27;20043;-53
2022/07/14 11:14:41;;;;;;;6.10;1.33;;;;;;;28.55;31.10;101848.13;5155849;27;20102;-52
2022/07/14 11:17:38;;;;;;;2.95;1.20;;;;;;;28.44;31.91;101841.38;5174413;27;20459;-52
2022/07/14 11:20:10;;;;;;;4.97;1.30;;;;;;;28.44;32.57;101844.94;5174286;27;20392;-52
2022/07/14 11:22:40;;;;;;;4.28;0.93;;;;;;;28.52;31.69;101854.78;5174254;27;20549;-50
2022/07/14 11:25:26;;;;;;;5.18;1.20;;;;;;;28.77;31.83;101847.09;5177876;27;20544;-57
2022/07/14 11:27:54;;;;;;;3.60;1.00;;;;;;;28.86;32.00;101845.06;5178368;27;20082;-57
2022/07/14 11:30:27;;;;;;;4.15;1.17;;;;;;;28.93;32.72;101845.13;5177896;27;20157;-57
2022/07/14 11:33:05;;;;;;;5.10;1.10;;;;;;;28.53;31.57;101853.75;5178529;27;20468;-57
2022/07/14 11:38:34;;;;;;;7.47;1.10;;;;;;;28.67;31.25;101847.44;5159433;27;20464;-58
2022/07/14 11:41:05;;;;;;;4.40;1.15;;;;;;;28.63;31.58;101845.28;5178414;27;20492;-51
2022/07/14 11:44:00;;;;;;;4.68;1.17;;;;;;;28.68;31.54;101826.63;5178199;27;20077;-51